sensor_id;sensor_type;location;lat;lon;timestamp;temperature;humidity
49503;DHT22;35409;48.776;9.204;2023-10-09T08:24:57;17.90;99.90
49503;DHT22;35409;48.776;9.204;2023-10-09T08:29:59;18.00;99.90
49503;DHT22;35409;48.776;9.204;2023-10-09T08:32:46;18.20;99.90
49503;DHT22;35409;48.776;9.204;2023-10-09T08:35:31;18.30;99.90
49503;DHT22;35409;48.776;9.204;2023-10-09T08:38:11;18.60;99.90
49503;DHT22;35409;48.776;9.204;2023-10-09T08:40:39;18.80;99.90
49503;DHT22;35409;48.776;9.204;2023-10-09T08:43:18;19.00;99.90
49503;DHT22;35409;48.776;9.204;2023-10-09T08:45:54;18.90;99.90
49503;DHT22;35409;48.776;9.204;2023-10-09T08:48:20;18.80;99.90
49503;DHT22;35409;48.776;9.204;2023-10-09T08:50:48;18.70;99.90
49503;DHT22;35409;48.776;9.204;2023-10-09T08:53:19;18.70;99.90
49503;DHT22;35409;48.776;9.204;2023-10-09T08:55:46;18.80;99.90
49503;DHT22;35409;48.776;9.204;2023-10-09T08:58:14;18.80;99.90
49503;DHT22;35409;48.776;9.204;2023-10-09T09:00:51;18.80;99.90
49503;DHT22;35409;48.776;9.204;2023-10-09T09:03:18;18.80;99.90
49503;DHT22;35409;48.776;9.204;2023-10-09T09:05:46;18.80;99.90
49503;DHT22;35409;48.776;9.204;2023-10-09T09:08:25;18.90;99.90
49503;DHT22;35409;48.776;9.204;2023-10-09T09:13:38;19.10;99.90
49503;DHT22;35409;48.776;9.204;2023-10-09T09:16:13;19.20;99.90
49503;DHT22;35409;48.776;9.204;2023-10-09T09:18:56;19.30;99.90
49503;DHT22;35409;48.776;9.204;2023-10-09T09:21:32;19.50;99.90
49503;DHT22;35409;48.776;9.204;2023-10-09T09:24:04;19.60;99.90
49503;DHT22;35409;48.776;9.204;2023-10-09T09:26:49;19.80;99.90
49503;DHT22;35409;48.776;9.204;2023-10-09T09:32:04;20.40;99.90
49503;DHT22;35409;48.776;9.204;2023-10-09T09:34:52;20.60;99.90
49503;DHT22;35409;48.776;9.204;2023-10-09T09:37:28;20.60;99.90
49503;DHT22;35409;48.776;9.204;2023-10-09T09:40:04;20.70;99.90
49503;DHT22;35409;48.776;9.204;2023-10-09T09:42:59;20.80;99.90
49503;DHT22;35409;48.776;9.204;2023-10-09T09:45:38;20.90;99.90
49503;DHT22;35409;48.776;9.204;2023-10-09T09:48:07;21.00;99.90
49503;DHT22;35409;48.776;9.204;2023-10-09T09:50:40;21.10;99.90
49503;DHT22;35409;48.776;9.204;2023-10-09T09:53:19;21.10;99.90
49503;DHT22;35409;48.776;9.204;2023-10-09T09:55:52;21.20;99.90
49503;DHT22;35409;48.776;9.204;2023-10-09T09:58:23;21.30;99.90
49503;DHT22;35409;48.776;9.204;2023-10-09T10:00:56;21.40;99.90
49503;DHT22;35409;48.776;9.204;2023-10-09T10:03:31;21.50;99.90
49503;DHT22;35409;48.776;9.204;2023-10-09T10:05:59;21.70;99.90
49503;DHT22;35409;48.776;9.204;2023-10-09T10:08:26;21.80;99.90
49503;DHT22;35409;48.776;9.204;2023-10-09T10:10:59;21.90;99.90
49503;DHT22;35409;48.776;9.204;2023-10-09T10:16:15;22.10;99.90
49503;DHT22;35409;48.776;9.204;2023-10-09T10:19:04;22.30;99.90
49503;DHT22;35409;48.776;9.204;2023-10-09T10:21:35;22.40;99.90
49503;DHT22;35409;48.776;9.204;2023-10-09T10:24:04;22.50;99.90
49503;DHT22;35409;48.776;9.204;2023-10-09T10:26:35;22.60;99.90
49503;DHT22;35409;48.776;9.204;2023-10-09T10:29:17;22.80;99.90
49503;DHT22;35409;48.776;9.204;2023-10-09T10:32:02;22.90;99.90
49503;DHT22;35409;48.776;9.204;2023-10-09T10:34:53;23.00;99.90
49503;DHT22;35409;48.776;9.204;2023-10-09T10:37:34;23.00;99.90
49503;DHT22;35409;48.776;9.204;2023-10-09T10:40:07;22.90;99.90
49503;DHT22;35409;48.776;9.204;2023-10-09T10:42:49;22.90;99.90
49503;DHT22;35409;48.776;9.204;2023-10-09T10:45:35;22.90;99.90
49503;DHT22;35409;48.776;9.204;2023-10-09T10:48:08;22.80;99.90
49503;DHT22;35409;48.776;9.204;2023-10-09T10:50:37;22.80;99.90
49503;DHT22;35409;48.776;9.204;2023-10-09T10:53:12;22.70;99.90
49503;DHT22;35409;48.776;9.204;2023-10-09T10:55:59;22.70;99.90
49503;DHT22;35409;48.776;9.204;2023-10-09T10:58:41;22.70;99.90
49503;DHT22;35409;48.776;9.204;2023-10-09T11:01:30;22.80;99.90
49503;DHT22;35409;48.776;9.204;2023-10-09T11:04:26;22.80;99.90
49503;DHT22;35409;48.776;9.204;2023-10-09T11:06:55;22.90;99.90
49503;DHT22;35409;48.776;9.204;2023-10-09T11:09:26;22.90;99.90
49503;DHT22;35409;48.776;9.204;2023-10-09T11:12:04;23.00;99.90
49503;DHT22;35409;48.776;9.204;2023-10-09T11:15:00;23.20;99.90
49503;DHT22;35409;48.776;9.204;2023-10-09T11:17:33;23.20;99.90
49503;DHT22;35409;48.776;9.204;2023-10-09T11:20:02;23.30;99.90
49503;DHT22;35409;48.776;9.204;2023-10-09T11:22:49;23.50;99.90
49503;DHT22;35409;48.776;9.204;2023-10-09T11:25:33;23.70;99.90
49503;DHT22;35409;48.776;9.204;2023-10-09T11:27:59;24.00;99.90
49503;DHT22;35409;48.776;9.204;2023-10-09T11:30:40;24.10;99.90
49503;DHT22;35409;48.776;9.204;2023-10-09T11:33:11;24.30;99.90
49503;DHT22;35409;48.776;9.204;2023-10-09T11:35:40;24.20;99.90
49503;DHT22;35409;48.776;9.204;2023-10-09T11:38:08;24.10;99.90
49503;DHT22;35409;48.776;9.204;2023-10-09T11:40:46;23.90;99.90
49503;DHT22;35409;48.776;9.204;2023-10-09T11:43:18;23.70;99.90
49503;DHT22;35409;48.776;9.204;2023-10-09T11:45:49;23.60;99.90
49503;DHT22;35409;48.776;9.204;2023-10-09T11:48:21;23.40;99.90
49503;DHT22;35409;48.776;9.204;2023-10-09T11:50:58;23.20;99.90
49503;DHT22;35409;48.776;9.204;2023-10-09T11:53:45;23.10;99.90
49503;DHT22;35409;48.776;9.204;2023-10-09T11:56:15;22.90;99.90
49503;DHT22;35409;48.776;9.204;2023-10-09T11:58:49;22.90;99.90
49503;DHT22;35409;48.776;9.204;2023-10-09T12:01:19;22.90;99.90
49503;DHT22;35409;48.776;9.204;2023-10-09T12:03:51;22.80;99.90
49503;DHT22;35409;48.776;9.204;2023-10-09T12:06:20;22.80;99.90
49503;DHT22;35409;48.776;9.204;2023-10-09T12:08:48;22.70;99.90
49503;DHT22;35409;48.776;9.204;2023-10-09T12:11:17;22.70;99.90
49503;DHT22;35409;48.776;9.204;2023-10-09T12:13:54;22.70;99.90
49503;DHT22;35409;48.776;9.204;2023-10-09T12:16:26;22.80;99.90
49503;DHT22;35409;48.776;9.204;2023-10-09T12:18:58;22.90;99.90
49503;DHT22;35409;48.776;9.204;2023-10-09T12:21:24;23.10;99.90
49503;DHT22;35409;48.776;9.204;2023-10-09T12:23:53;23.40;99.90
49503;DHT22;35409;48.776;9.204;2023-10-09T12:26:22;23.70;99.90
49503;DHT22;35409;48.776;9.204;2023-10-09T12:28:48;24.00;99.90
49503;DHT22;35409;48.776;9.204;2023-10-09T12:31:16;24.30;99.90
49503;DHT22;35409;48.776;9.204;2023-10-09T12:33:45;24.60;99.40
49503;DHT22;35409;48.776;9.204;2023-10-09T12:36:12;24.90;95.30
49503;DHT22;35409;48.776;9.204;2023-10-09T12:38:46;25.20;91.40
49503;DHT22;35409;48.776;9.204;2023-10-09T12:41:13;25.60;91.50
49503;DHT22;35409;48.776;9.204;2023-10-09T12:43:52;25.90;92.20
49503;DHT22;35409;48.776;9.204;2023-10-09T12:46:18;26.10;93.80
49503;DHT22;35409;48.776;9.204;2023-10-09T12:48:48;26.20;93.40
49503;DHT22;35409;48.776;9.204;2023-10-09T12:51:15;26.20;92.40
49503;DHT22;35409;48.776;9.204;2023-10-09T12:53:47;26.10;93.00
49503;DHT22;35409;48.776;9.204;2023-10-09T12:56:25;26.00;92.10
49503;DHT22;35409;48.776;9.204;2023-10-09T12:59:03;26.00;92.20
49503;DHT22;35409;48.776;9.204;2023-10-09T13:01:30;26.00;92.40
49503;DHT22;35409;48.776;9.204;2023-10-09T13:04:11;25.90;81.00
49503;DHT22;35409;48.776;9.204;2023-10-09T13:06:41;25.80;89.40
49503;DHT22;35409;48.776;9.204;2023-10-09T13:09:16;25.70;90.30
49503;DHT22;35409;48.776;9.204;2023-10-09T13:12:00;25.60;86.40
49503;DHT22;35409;48.776;9.204;2023-10-09T13:14:28;25.50;86.60
49503;DHT22;35409;48.776;9.204;2023-10-09T13:16:54;25.50;87.80
49503;DHT22;35409;48.776;9.204;2023-10-09T13:19:20;25.70;84.60
49503;DHT22;35409;48.776;9.204;2023-10-09T13:21:49;25.70;83.10
49503;DHT22;35409;48.776;9.204;2023-10-09T13:24:15;25.70;80.80
49503;DHT22;35409;48.776;9.204;2023-10-09T13:26:45;25.80;83.80
49503;DHT22;35409;48.776;9.204;2023-10-09T13:29:12;25.80;70.20
49503;DHT22;35409;48.776;9.204;2023-10-09T13:31:39;25.90;68.00
49503;DHT22;35409;48.776;9.204;2023-10-09T13:34:12;26.10;66.90
49503;DHT22;35409;48.776;9.204;2023-10-09T13:36:41;26.50;66.90
49503;DHT22;35409;48.776;9.204;2023-10-09T13:39:10;26.70;65.70
49503;DHT22;35409;48.776;9.204;2023-10-09T13:41:53;27.00;65.20
49503;DHT22;35409;48.776;9.204;2023-10-09T16:06:07;22.80;80.20
49503;DHT22;35409;48.776;9.204;2023-10-09T16:08:44;22.70;82.20
49503;DHT22;35409;48.776;9.204;2023-10-09T16:11:17;22.50;66.10
49503;DHT22;35409;48.776;9.204;2023-10-09T16:13:43;22.40;66.40
49503;DHT22;35409;48.776;9.204;2023-10-09T16:16:09;22.30;66.90
49503;DHT22;35409;48.776;9.204;2023-10-09T16:18:35;22.20;67.10
49503;DHT22;35409;48.776;9.204;2023-10-09T16:21:04;22.10;67.50
49503;DHT22;35409;48.776;9.204;2023-10-09T16:23:31;21.90;68.20
49503;DHT22;35409;48.776;9.204;2023-10-09T16:25:57;21.80;68.30
49503;DHT22;35409;48.776;9.204;2023-10-09T16:28:28;21.70;68.70
49503;DHT22;35409;48.776;9.204;2023-10-09T16:30:53;21.50;68.60
49503;DHT22;35409;48.776;9.204;2023-10-09T16:33:20;21.40;68.40
49503;DHT22;35409;48.776;9.204;2023-10-09T16:35:46;21.30;67.90
49503;DHT22;35409;48.776;9.204;2023-10-09T16:38:14;21.20;68.60
49503;DHT22;35409;48.776;9.204;2023-10-09T16:40:40;21.10;69.10
49503;DHT22;35409;48.776;9.204;2023-10-09T16:43:05;21.00;69.70
49503;DHT22;35409;48.776;9.204;2023-10-09T16:45:35;20.90;70.30
49503;DHT22;35409;48.776;9.204;2023-10-09T16:48:01;20.80;70.80
49503;DHT22;35409;48.776;9.204;2023-10-09T16:50:31;20.60;71.00
49503;DHT22;35409;48.776;9.204;2023-10-09T16:52:57;20.50;71.10
49503;DHT22;35409;48.776;9.204;2023-10-09T16:55:23;20.40;71.40
49503;DHT22;35409;48.776;9.204;2023-10-09T16:57:52;20.40;71.70
49503;DHT22;35409;48.776;9.204;2023-10-09T17:00:19;20.30;72.20
49503;DHT22;35409;48.776;9.204;2023-10-09T17:02:57;20.20;72.30
49503;DHT22;35409;48.776;9.204;2023-10-09T17:05:25;20.10;72.90
49503;DHT22;35409;48.776;9.204;2023-10-09T17:08:01;20.00;73.90
49503;DHT22;35409;48.776;9.204;2023-10-09T17:10:28;20.00;82.40
49503;DHT22;35409;48.776;9.204;2023-10-09T17:13:00;19.90;80.50
49503;DHT22;35409;48.776;9.204;2023-10-09T21:41:44;17.70;99.90
49503;DHT22;35409;48.776;9.204;2023-10-09T21:44:12;17.60;99.90
49503;DHT22;35409;48.776;9.204;2023-10-09T21:46:40;17.40;99.90
49503;DHT22;35409;48.776;9.204;2023-10-09T21:49:09;17.20;99.90
49503;DHT22;35409;48.776;9.204;2023-10-09T21:51:35;17.00;96.20
49503;DHT22;35409;48.776;9.204;2023-10-09T21:54:03;16.80;95.80
49503;DHT22;35409;48.776;9.204;2023-10-09T21:56:29;16.60;95.20
49503;DHT22;35409;48.776;9.204;2023-10-09T21:58:54;16.50;95.20
49503;DHT22;35409;48.776;9.204;2023-10-09T22:01:21;16.40;95.40
49503;DHT22;35409;48.776;9.204;2023-10-09T22:03:53;16.30;95.50
49503;DHT22;35409;48.776;9.204;2023-10-09T22:06:24;16.20;96.10
49503;DHT22;35409;48.776;9.204;2023-10-09T22:08:50;16.10;96.50
49503;DHT22;35409;48.776;9.204;2023-10-09T22:11:18;16.00;97.20
49503;DHT22;35409;48.776;9.204;2023-10-09T22:13:44;15.90;97.60
49503;DHT22;35409;48.776;9.204;2023-10-09T22:16:11;16.00;98.00
49503;DHT22;35409;48.776;9.204;2023-10-09T22:18:37;15.90;98.30
49503;DHT22;35409;48.776;9.204;2023-10-09T22:21:05;15.70;98.70
49503;DHT22;35409;48.776;9.204;2023-10-09T22:23:35;15.60;99.20
49503;DHT22;35409;48.776;9.204;2023-10-09T22:26:01;15.50;99.60
49503;DHT22;35409;48.776;9.204;2023-10-09T22:28:31;15.40;99.90
49503;DHT22;35409;48.776;9.204;2023-10-09T22:31:00;15.30;99.90
49503;DHT22;35409;48.776;9.204;2023-10-09T22:33:31;15.20;99.90
49503;DHT22;35409;48.776;9.204;2023-10-09T22:36:18;15.20;99.90
49503;DHT22;35409;48.776;9.204;2023-10-09T22:38:53;15.10;99.90
49503;DHT22;35409;48.776;9.204;2023-10-09T22:41:26;15.00;99.90
49503;DHT22;35409;48.776;9.204;2023-10-09T22:43:55;14.90;99.90
49503;DHT22;35409;48.776;9.204;2023-10-09T22:46:25;14.90;99.90
49503;DHT22;35409;48.776;9.204;2023-10-09T22:48:51;14.80;99.90
49503;DHT22;35409;48.776;9.204;2023-10-09T22:51:19;14.80;99.90
49503;DHT22;35409;48.776;9.204;2023-10-09T22:53:49;14.80;99.90
49503;DHT22;35409;48.776;9.204;2023-10-09T22:56:17;14.70;99.90
49503;DHT22;35409;48.776;9.204;2023-10-09T22:58:46;14.80;99.90
49503;DHT22;35409;48.776;9.204;2023-10-09T23:01:19;14.90;99.90
49503;DHT22;35409;48.776;9.204;2023-10-09T23:03:51;14.90;99.90
49503;DHT22;35409;48.776;9.204;2023-10-09T23:06:42;15.10;99.90
49503;DHT22;35409;48.776;9.204;2023-10-09T23:09:11;15.30;99.90
49503;DHT22;35409;48.776;9.204;2023-10-09T23:11:47;15.20;99.90
49503;DHT22;35409;48.776;9.204;2023-10-09T23:14:20;15.10;99.90
49503;DHT22;35409;48.776;9.204;2023-10-09T23:16:58;15.00;99.90
49503;DHT22;35409;48.776;9.204;2023-10-09T23:19:29;15.00;99.90
49503;DHT22;35409;48.776;9.204;2023-10-09T23:22:02;14.90;99.90
49503;DHT22;35409;48.776;9.204;2023-10-09T23:24:43;14.80;99.90
49503;DHT22;35409;48.776;9.204;2023-10-09T23:27:26;14.80;99.90
49503;DHT22;35409;48.776;9.204;2023-10-09T23:30:17;14.70;99.90
49503;DHT22;35409;48.776;9.204;2023-10-09T23:32:52;14.70;99.90
49503;DHT22;35409;48.776;9.204;2023-10-09T23:35:41;14.70;99.90
49503;DHT22;35409;48.776;9.204;2023-10-09T23:38:20;14.60;99.90
49503;DHT22;35409;48.776;9.204;2023-10-09T23:40:47;14.60;99.90
49503;DHT22;35409;48.776;9.204;2023-10-09T23:43:15;14.50;99.90
49503;DHT22;35409;48.776;9.204;2023-10-09T23:45:45;14.40;99.90
49503;DHT22;35409;48.776;9.204;2023-10-09T23:48:13;14.30;99.90
49503;DHT22;35409;48.776;9.204;2023-10-09T23:50:50;14.20;99.90
49503;DHT22;35409;48.776;9.204;2023-10-09T23:53:23;14.20;99.90
49503;DHT22;35409;48.776;9.204;2023-10-09T23:55:59;14.10;99.90
49503;DHT22;35409;48.776;9.204;2023-10-09T23:58:36;14.00;99.90
